Terminal Aerodrome Forecast
Issued by NWS

Home | Current Version | Previous Version | Text Only | Print | Product List | Glossary On
Versions: 1 2 3 4 5 6 7 8 9 10 11 12 13 14
000
FTUS46 KHNX 221145
TAFBFL
TAF
KBFL 221145Z 2212/2312 33008KT P6SM OVC070
     FM221800 31012G19KT P6SM SCT050 BKN200
     FM230800 33008KT P6SM SCT200=

USA.gov is the U.S. government's official web portal to all federal, state and local government web resources and services.